createdAt,value
2022-09-18T00:00:02.751Z,9.00
2022-09-18T00:02:31.362Z,9.00
2022-09-18T00:04:58.810Z,9.00
2022-09-18T00:07:25.583Z,8.90
2022-09-18T00:09:52.291Z,8.90
2022-09-18T00:12:19.972Z,8.90
2022-09-18T00:14:48.308Z,8.90
2022-09-18T00:17:15.039Z,8.90
2022-09-18T00:19:43.681Z,8.90
2022-09-18T00:22:10.670Z,8.90
2022-09-18T00:24:37.589Z,8.90
2022-09-18T00:27:05.346Z,8.90
2022-09-18T00:29:32.202Z,8.90
2022-09-18T00:31:58.898Z,8.90
2022-09-18T00:34:26.238Z,8.80
2022-09-18T00:36:54.326Z,8.90
2022-09-18T00:39:21.060Z,8.80
2022-09-18T00:41:48.412Z,8.80
2022-09-18T00:44:37.213Z,8.90
2022-09-18T00:47:15.051Z,8.90
2022-09-18T00:49:44.406Z,8.90
2022-09-18T00:52:14.620Z,8.90
2022-09-18T00:54:44.252Z,8.90
2022-09-18T00:57:15.382Z,8.90
2022-09-18T00:59:45.164Z,8.90
2022-09-18T01:02:12.829Z,8.90
2022-09-18T01:04:40.128Z,8.90
2022-09-18T01:07:14.527Z,8.90
2022-09-18T01:09:51.935Z,8.90
2022-09-18T01:12:32.582Z,8.90
2022-09-18T01:15:07.257Z,8.90
2022-09-18T01:17:38.933Z,8.90
2022-09-18T01:20:26.631Z,8.90
2022-09-18T01:23:11.660Z,8.90
2022-09-18T01:25:52.663Z,8.90
2022-09-18T01:28:26.738Z,8.90
2022-09-18T01:30:58.972Z,8.90
2022-09-18T01:33:31.682Z,8.80
2022-09-18T01:36:02.676Z,8.80
2022-09-18T01:38:33.520Z,8.80
2022-09-18T01:41:05.047Z,8.80
2022-09-18T01:43:34.948Z,8.80
2022-09-18T01:46:08.481Z,8.80
2022-09-18T01:48:39.410Z,8.80
2022-09-18T01:51:12.199Z,8.80
2022-09-18T01:53:43.881Z,8.80
2022-09-18T01:56:16.499Z,8.80
2022-09-18T01:58:46.022Z,8.70
2022-09-18T02:01:17.094Z,8.70
2022-09-18T02:03:50.551Z,8.80
2022-09-18T02:06:22.089Z,8.80
2022-09-18T02:08:52.111Z,8.80
2022-09-18T02:11:21.214Z,8.80
2022-09-18T02:13:53.704Z,8.80
2022-09-18T02:16:27.848Z,8.80
2022-09-18T02:18:57.677Z,8.90
2022-09-18T02:21:28.399Z,8.90
2022-09-18T02:24:02.972Z,8.80
2022-09-18T02:26:32.362Z,8.80
2022-09-18T02:29:02.145Z,8.80
2022-09-18T02:31:29.505Z,8.80
2022-09-18T02:33:56.312Z,8.80
2022-09-18T02:36:39.687Z,8.80
2022-09-18T02:39:22.841Z,8.80
2022-09-18T02:41:59.565Z,8.90
2022-09-18T02:44:36.913Z,8.80
2022-09-18T02:47:13.779Z,8.80
2022-09-18T02:49:50.301Z,8.80
2022-09-18T02:52:23.852Z,8.80
2022-09-18T02:54:55.690Z,8.80
2022-09-18T02:57:29.536Z,8.80
2022-09-18T03:00:00.772Z,8.80
2022-09-18T03:02:28.661Z,8.80
2022-09-18T03:04:55.455Z,8.80
2022-09-18T03:07:23.015Z,8.80
2022-09-18T03:09:49.735Z,8.80
2022-09-18T03:12:16.981Z,8.80
2022-09-18T03:14:44.379Z,8.90
2022-09-18T03:17:12.444Z,8.90
2022-09-18T03:19:39.214Z,8.90
2022-09-18T03:22:08.776Z,8.90
2022-09-18T03:24:35.535Z,8.90
2022-09-18T03:27:02.341Z,8.80
2022-09-18T03:29:29.772Z,8.80
2022-09-18T03:31:56.585Z,8.70
2022-09-18T03:34:24.916Z,8.70
2022-09-18T03:36:52.256Z,8.60
2022-09-18T03:39:19.278Z,8.60
2022-09-18T03:41:47.044Z,8.70
2022-09-18T03:44:14.444Z,8.70
2022-09-18T03:46:41.247Z,8.60
2022-09-18T03:49:08.004Z,8.60
2022-09-18T03:51:36.702Z,8.60
2022-09-18T03:54:03.687Z,8.60
2022-09-18T03:56:30.425Z,8.70
2022-09-18T03:58:57.760Z,8.70
2022-09-18T04:01:24.592Z,8.70
2022-09-18T04:03:54.209Z,8.70
2022-09-18T04:06:21.539Z,8.70
2022-09-18T04:08:49.616Z,8.70
2022-09-18T04:11:16.363Z,8.70
2022-09-18T04:13:43.739Z,8.70
2022-09-18T04:16:10.518Z,8.70
2022-09-18T04:18:37.248Z,8.70
2022-09-18T04:21:04.748Z,8.70
2022-09-18T04:23:31.508Z,8.70
2022-09-18T04:25:59.588Z,8.70
2022-09-18T04:28:28.075Z,8.60
2022-09-18T04:30:54.920Z,8.60
2022-09-18T04:33:21.735Z,8.60
2022-09-18T04:35:49.062Z,8.60
2022-09-18T04:38:15.813Z,8.60
2022-09-18T04:40:42.581Z,8.60
2022-09-18T04:43:11.312Z,8.60
2022-09-18T04:45:38.054Z,8.60
2022-09-18T04:48:04.799Z,8.70
2022-09-18T04:50:32.127Z,8.70
2022-09-18T04:52:58.833Z,8.80
2022-09-18T04:55:25.558Z,8.80
2022-09-18T04:57:54.613Z,8.80
2022-09-18T05:00:22.941Z,8.80
2022-09-18T05:02:49.675Z,8.80
2022-09-18T05:05:17.132Z,8.80
2022-09-18T05:07:43.866Z,8.80
2022-09-18T05:10:10.655Z,8.80
2022-09-18T05:12:39.926Z,8.80
2022-09-18T05:15:08.020Z,8.80
2022-09-18T05:17:36.064Z,8.80
2022-09-18T05:20:03.494Z,8.80
2022-09-18T05:22:30.280Z,8.80
2022-09-18T05:24:57.036Z,8.90
2022-09-18T05:27:26.933Z,8.90
2022-09-18T05:29:53.935Z,8.90
2022-09-18T05:32:20.664Z,8.90
2022-09-18T05:34:49.595Z,8.90
2022-09-18T05:37:17.053Z,8.90
2022-09-18T05:39:44.075Z,8.80
2022-09-18T05:42:11.384Z,8.90
2022-09-18T05:44:38.109Z,8.90
2022-09-18T05:47:05.698Z,8.90
2022-09-18T05:49:33.029Z,8.90
2022-09-18T05:52:01.235Z,8.90
2022-09-18T05:54:27.947Z,8.90
2022-09-18T05:56:55.274Z,8.90
2022-09-18T05:59:22.066Z,8.90
2022-09-18T06:01:48.843Z,8.90
2022-09-18T06:04:16.217Z,8.90
2022-09-18T06:06:42.936Z,8.90
2022-09-18T06:09:11.051Z,9.00
2022-09-18T06:11:38.442Z,8.90
2022-09-18T06:14:05.187Z,8.90
2022-09-18T06:16:32.003Z,8.90
2022-09-18T06:18:59.363Z,8.90
2022-09-18T06:21:26.100Z,9.00
2022-09-18T06:23:52.818Z,9.00
2022-09-18T06:26:21.495Z,9.10
2022-09-18T06:28:48.196Z,9.20
2022-09-18T06:31:14.942Z,9.30
2022-09-18T06:33:42.399Z,9.30
2022-09-18T06:36:11.071Z,9.40
2022-09-18T06:38:37.944Z,9.40
2022-09-18T06:41:05.579Z,9.50
2022-09-18T06:43:33.628Z,9.50
2022-09-18T06:46:00.350Z,9.50
2022-09-18T06:48:27.895Z,9.70
2022-09-18T06:50:56.204Z,9.70
2022-09-18T06:53:23.939Z,9.80
2022-09-18T06:55:51.691Z,9.80
2022-09-18T06:58:19.568Z,9.80
2022-09-18T07:00:47.768Z,9.90
2022-09-18T07:03:15.188Z,9.70
2022-09-18T07:05:43.312Z,9.80
2022-09-18T07:08:10.267Z,9.80
2022-09-18T07:10:38.515Z,9.80
2022-09-18T07:13:05.464Z,9.90
2022-09-18T07:15:35.660Z,10.00
2022-09-18T07:18:08.423Z,9.90
2022-09-18T07:20:37.113Z,10.10
2022-09-18T07:23:04.795Z,10.30
2022-09-18T07:25:32.396Z,10.20
2022-09-18T07:28:03.436Z,10.30
2022-09-18T07:30:30.828Z,10.30
2022-09-18T07:32:57.605Z,10.50
2022-09-18T07:35:25.702Z,10.50
2022-09-18T07:37:57.193Z,10.60
2022-09-18T07:40:24.010Z,10.80
2022-09-18T07:42:50.812Z,10.90
2022-09-18T07:45:18.445Z,11.10
2022-09-18T07:47:45.399Z,11.20
2022-09-18T07:50:12.121Z,11.20
2022-09-18T07:52:47.258Z,11.70
2022-09-18T07:55:14.032Z,11.60
2022-09-18T07:57:41.399Z,11.40
2022-09-18T08:00:09.503Z,11.50
2022-09-18T08:02:36.397Z,11.30
2022-09-18T08:05:04.199Z,11.20
2022-09-18T08:07:30.907Z,11.40
2022-09-18T08:09:59.347Z,11.50
2022-09-18T08:12:26.779Z,11.50
2022-09-18T08:14:53.495Z,11.40
2022-09-18T08:17:20.339Z,11.40
2022-09-18T08:19:47.772Z,11.50
2022-09-18T08:22:14.609Z,11.40
2022-09-18T08:24:41.657Z,11.80
2022-09-18T08:27:10.586Z,11.90
2022-09-18T08:29:37.307Z,12.00
2022-09-18T08:32:09.053Z,12.10
2022-09-18T08:34:37.150Z,12.20
2022-09-18T08:37:03.919Z,12.20
2022-09-18T08:39:30.641Z,12.10
2022-09-18T08:42:21.667Z,12.20
2022-09-18T08:44:55.557Z,12.50
2022-09-18T08:47:27.235Z,12.40
2022-09-18T08:49:59.105Z,12.40
2022-09-18T08:52:28.747Z,12.30
2022-09-18T08:55:01.962Z,11.80
2022-09-18T08:57:36.596Z,11.70
2022-09-18T09:00:05.989Z,11.30
2022-09-18T09:02:38.527Z,11.10
2022-09-18T09:05:10.365Z,11.00
2022-09-18T09:08:11.604Z,10.80
2022-09-18T09:10:42.653Z,10.80
2022-09-18T09:13:49.092Z,11.10
2022-09-18T09:16:20.848Z,11.50
2022-09-18T09:18:58.807Z,11.30
2022-09-18T09:21:42.359Z,11.30
2022-09-18T09:24:23.583Z,11.40
2022-09-18T09:26:53.962Z,11.40
2022-09-18T09:29:27.722Z,11.60
2022-09-18T09:31:58.610Z,11.20
2022-09-18T09:34:29.267Z,11.10
2022-09-18T09:36:58.947Z,11.10
2022-09-18T09:39:29.390Z,11.00
2022-09-18T09:42:00.466Z,10.80
2022-09-18T09:44:36.013Z,10.80
2022-09-18T09:47:25.283Z,10.70
2022-09-18T09:50:05.111Z,10.70
2022-09-18T09:52:38.628Z,10.80
2022-09-18T09:55:19.378Z,10.60
2022-09-18T09:57:54.294Z,10.80
2022-09-18T10:00:22.995Z,10.90
2022-09-18T10:03:16.488Z,11.10
2022-09-18T10:05:53.502Z,11.10
2022-09-18T10:08:27.209Z,11.00
2022-09-18T10:10:57.712Z,11.10
2022-09-18T10:13:29.067Z,11.20
2022-09-18T10:16:01.908Z,11.20
2022-09-18T10:18:31.760Z,11.30
2022-09-18T10:21:05.399Z,11.20
2022-09-18T10:23:38.135Z,11.10
2022-09-18T10:26:06.478Z,10.90
2022-09-18T10:28:33.420Z,10.80
2022-09-18T10:31:03.949Z,10.70
2022-09-18T10:33:35.431Z,10.80
2022-09-18T10:36:10.419Z,11.00
2022-09-18T10:38:37.810Z,11.10
2022-09-18T10:41:16.762Z,11.50
2022-09-18T10:43:53.258Z,11.60
2022-09-18T10:46:26.323Z,11.40
2022-09-18T10:48:54.489Z,11.40
2022-09-18T10:51:22.778Z,11.60
2022-09-18T10:54:01.647Z,11.50
2022-09-18T10:56:29.102Z,11.70
2022-09-18T10:59:34.323Z,11.90
2022-09-18T11:02:13.797Z,11.40
2022-09-18T11:04:40.507Z,11.60
2022-09-18T11:07:11.219Z,11.70
2022-09-18T11:09:39.460Z,12.00
2022-09-18T11:12:15.308Z,12.10
2022-09-18T11:14:45.818Z,12.10
2022-09-18T11:17:22.763Z,12.00
2022-09-18T11:19:52.435Z,11.80
2022-09-18T11:22:34.530Z,11.80
2022-09-18T11:25:16.704Z,11.50
2022-09-18T11:27:46.431Z,11.60
2022-09-18T11:30:16.197Z,11.50
2022-09-18T11:32:46.276Z,11.60
2022-09-18T11:35:16.099Z,11.50
2022-09-18T11:37:46.554Z,11.40
2022-09-18T11:40:21.125Z,11.30
2022-09-18T11:42:50.571Z,11.10
2022-09-18T11:45:31.380Z,11.10
2022-09-18T11:48:07.183Z,11.00
2022-09-18T11:50:36.719Z,11.00
2022-09-18T11:53:05.083Z,11.00
2022-09-18T11:55:36.349Z,11.00
2022-09-18T11:58:06.539Z,11.10
2022-09-18T12:00:41.480Z,11.00
2022-09-18T12:03:20.641Z,11.10
2022-09-18T12:05:58.340Z,11.00
2022-09-18T12:08:36.757Z,10.90
2022-09-18T12:11:12.348Z,10.80
2022-09-18T12:13:47.429Z,10.70
2022-09-18T12:16:18.770Z,10.50
2022-09-18T12:18:55.651Z,10.50
2022-09-18T12:21:34.712Z,10.50
2022-09-18T12:24:02.374Z,10.50
2022-09-18T12:26:39.178Z,10.60
2022-09-18T12:29:19.630Z,10.80
2022-09-18T12:31:57.220Z,10.80
2022-09-18T12:34:33.552Z,10.80
2022-09-18T12:37:10.778Z,10.80
2022-09-18T12:40:10.768Z,10.80
2022-09-18T12:42:43.586Z,10.80
2022-09-18T12:45:43.421Z,10.90
2022-09-18T12:48:28.587Z,10.90
2022-09-18T12:51:12.023Z,10.90
2022-09-18T12:53:48.946Z,11.00
2022-09-18T12:56:28.628Z,11.00
2022-09-18T12:59:24.579Z,10.90
2022-09-18T13:01:57.445Z,10.80
2022-09-18T13:04:28.984Z,10.70
2022-09-18T13:07:03.200Z,10.70
2022-09-18T13:09:34.331Z,10.60
2022-09-18T13:12:05.535Z,10.50
2022-09-18T13:14:39.697Z,10.50
2022-09-18T13:17:13.542Z,10.40
2022-09-18T13:19:45.631Z,10.30
2022-09-18T13:22:18.142Z,10.30
2022-09-18T13:24:48.336Z,10.30
2022-09-18T13:27:17.771Z,10.20
2022-09-18T13:29:48.873Z,10.30
2022-09-18T13:32:18.885Z,10.30
2022-09-18T13:34:51.134Z,10.40
2022-09-18T13:37:22.395Z,10.30
2022-09-18T13:40:09.256Z,10.40
2022-09-18T13:42:40.326Z,10.30
2022-09-18T13:45:19.212Z,10.30
2022-09-18T13:48:01.554Z,10.20
2022-09-18T13:50:28.906Z,10.20
2022-09-18T13:52:59.332Z,10.20
2022-09-18T13:55:37.715Z,10.10
2022-09-18T13:58:42.443Z,10.10
2022-09-18T14:01:10.238Z,10.10
2022-09-18T14:03:39.433Z,10.10
2022-09-18T14:06:43.610Z,10.10
2022-09-18T14:09:45.255Z,10.10
2022-09-18T14:12:13.122Z,10.00
2022-09-18T14:14:41.660Z,10.00
2022-09-18T14:17:13.523Z,10.00
2022-09-18T14:19:45.238Z,10.00
2022-09-18T14:22:23.689Z,10.00
2022-09-18T14:24:57.424Z,10.00
2022-09-18T14:27:44.827Z,9.90
2022-09-18T14:30:21.595Z,9.90
2022-09-18T14:33:00.572Z,9.80
2022-09-18T14:35:37.429Z,9.80
2022-09-18T14:38:16.686Z,9.80
2022-09-18T14:40:53.350Z,9.70
2022-09-18T14:43:23.441Z,9.60
2022-09-18T14:45:57.233Z,9.60
2022-09-18T14:48:29.463Z,9.60
2022-09-18T14:51:00.923Z,9.60
2022-09-18T14:53:29.122Z,9.60
2022-09-18T14:56:02.222Z,9.50
2022-09-18T14:58:34.289Z,9.60
2022-09-18T15:01:04.354Z,9.60
2022-09-18T15:03:36.839Z,9.50
2022-09-18T15:06:13.802Z,9.50
2022-09-18T15:08:44.030Z,9.50
2022-09-18T15:11:16.023Z,9.60
2022-09-18T15:13:42.982Z,9.60
2022-09-18T15:16:18.965Z,9.50
2022-09-18T15:18:47.290Z,9.50
2022-09-18T15:21:23.324Z,9.50
2022-09-18T15:23:51.079Z,9.50
2022-09-18T15:26:22.384Z,9.40
2022-09-18T15:28:51.436Z,9.50
2022-09-18T15:31:20.886Z,9.50
2022-09-18T15:33:53.270Z,9.50
2022-09-18T15:36:25.790Z,9.50
2022-09-18T15:38:53.387Z,9.60
2022-09-18T15:41:30.388Z,9.50
2022-09-18T15:43:57.299Z,9.50
2022-09-18T15:46:27.449Z,9.50
2022-09-18T15:48:54.750Z,9.40
2022-09-18T15:51:24.004Z,9.40
2022-09-18T15:54:03.693Z,9.40
2022-09-18T15:56:32.854Z,9.40
2022-09-18T15:59:02.560Z,9.30
2022-09-18T16:01:32.016Z,9.20
2022-09-18T16:04:14.844Z,9.30
2022-09-18T16:06:48.683Z,9.30
2022-09-18T16:09:24.400Z,9.30
2022-09-18T16:11:53.353Z,9.30
2022-09-18T16:14:44.378Z,9.10
2022-09-18T16:17:56.730Z,9.10
2022-09-18T16:20:30.287Z,9.10
2022-09-18T16:23:16.975Z,9.00
2022-09-18T16:25:44.706Z,9.00
2022-09-18T16:28:25.553Z,9.00
2022-09-18T16:30:52.759Z,9.00
2022-09-18T16:33:22.434Z,8.90
2022-09-18T16:35:55.294Z,8.90
2022-09-18T16:38:22.779Z,8.90
2022-09-18T16:40:49.542Z,8.90
2022-09-18T16:43:16.304Z,8.90
2022-09-18T16:45:46.427Z,8.90
2022-09-18T16:48:13.237Z,8.90
2022-09-18T16:50:39.978Z,8.90
2022-09-18T16:53:08.187Z,8.90
2022-09-18T16:55:37.292Z,8.90
2022-09-18T16:58:05.577Z,8.80
2022-09-18T17:00:36.032Z,8.80
2022-09-18T17:03:05.042Z,8.80
2022-09-18T17:05:32.773Z,8.80
2022-09-18T17:07:59.679Z,8.80
2022-09-18T17:10:26.487Z,8.80
2022-09-18T17:12:53.822Z,8.70
2022-09-18T17:15:20.556Z,8.80
2022-09-18T17:17:47.308Z,8.70
2022-09-18T17:20:16.082Z,8.70
2022-09-18T17:22:42.835Z,8.70
2022-09-18T17:25:09.850Z,8.70
2022-09-18T17:27:41.739Z,8.60
2022-09-18T17:30:11.196Z,8.60
2022-09-18T17:32:38.934Z,8.60
2022-09-18T17:35:06.486Z,8.60
2022-09-18T17:37:34.627Z,8.50
2022-09-18T17:40:02.636Z,8.50
2022-09-18T17:42:29.433Z,8.40
2022-09-18T17:44:56.159Z,8.30
2022-09-18T17:47:23.727Z,8.20
2022-09-18T17:49:50.554Z,8.10
2022-09-18T17:52:17.487Z,7.90
2022-09-18T17:54:46.198Z,7.90
2022-09-18T17:57:12.951Z,7.80
2022-09-18T17:59:41.682Z,7.80
2022-09-18T18:02:11.372Z,7.60
2022-09-18T18:04:38.354Z,7.50
2022-09-18T18:07:06.466Z,7.50
2022-09-18T18:09:35.351Z,7.30
2022-09-18T18:12:04.326Z,7.40
2022-09-18T18:14:31.154Z,7.30
2022-09-18T18:16:58.492Z,7.20
2022-09-18T18:19:25.384Z,7.20
2022-09-18T18:21:52.292Z,7.20
2022-09-18T18:24:19.726Z,7.20
2022-09-18T18:26:47.019Z,7.20
2022-09-18T18:29:17.407Z,7.20
2022-09-18T18:31:45.488Z,7.10
2022-09-18T18:34:12.901Z,7.20
2022-09-18T18:36:41.584Z,7.10
2022-09-18T18:39:10.458Z,7.00
2022-09-18T18:41:38.627Z,7.10
2022-09-18T18:44:05.468Z,7.10
2022-09-18T18:46:36.471Z,7.20
2022-09-18T18:49:05.752Z,7.10
2022-09-18T18:51:35.345Z,7.10
2022-09-18T18:54:03.538Z,7.00
2022-09-18T18:56:31.345Z,7.10
2022-09-18T18:59:00.755Z,7.10
2022-09-18T19:01:28.763Z,7.00
2022-09-18T19:04:01.150Z,7.00
2022-09-18T19:06:28.804Z,7.00
2022-09-18T19:08:56.602Z,6.90
2022-09-18T19:11:23.378Z,6.80
2022-09-18T19:13:52.044Z,6.90
2022-09-18T19:16:19.225Z,6.80
2022-09-18T19:18:53.860Z,6.80
2022-09-18T19:21:22.749Z,6.80
2022-09-18T19:23:50.425Z,6.90
2022-09-18T19:26:17.320Z,7.00
2022-09-18T19:28:48.756Z,6.80
2022-09-18T19:31:15.508Z,6.80
2022-09-18T19:33:42.232Z,6.90
2022-09-18T19:36:10.423Z,6.80
2022-09-18T19:38:38.526Z,6.80
2022-09-18T19:41:07.968Z,6.80
2022-09-18T19:43:36.550Z,6.70
2022-09-18T19:46:04.168Z,6.90
2022-09-18T19:48:30.914Z,6.80
2022-09-18T19:50:58.493Z,6.80
2022-09-18T19:53:25.311Z,6.70
2022-09-18T19:55:53.379Z,6.70
2022-09-18T19:58:20.682Z,6.80
2022-09-18T20:00:47.516Z,6.70
2022-09-18T20:03:14.244Z,6.70
2022-09-18T20:05:41.773Z,6.50
2022-09-18T20:08:09.280Z,6.50
2022-09-18T20:10:38.130Z,6.60
2022-09-18T20:13:07.555Z,6.70
2022-09-18T20:15:34.306Z,6.70
2022-09-18T20:18:01.041Z,6.70
2022-09-18T20:20:28.410Z,6.70
2022-09-18T20:22:55.606Z,6.60
2022-09-18T20:25:23.139Z,6.70
2022-09-18T20:27:50.495Z,6.60
2022-09-18T20:30:18.656Z,6.70
2022-09-18T20:32:45.401Z,6.60
2022-09-18T20:35:12.768Z,6.50
2022-09-18T20:37:39.506Z,6.70
2022-09-18T20:40:07.804Z,6.90
2022-09-18T20:42:35.151Z,6.80
2022-09-18T20:45:02.151Z,6.80
2022-09-18T20:47:32.187Z,6.80
2022-09-18T20:49:59.534Z,6.90
2022-09-18T20:52:26.256Z,6.70
2022-09-18T20:54:53.000Z,6.80
2022-09-18T20:57:20.316Z,6.70
2022-09-18T20:59:47.053Z,6.70
2022-09-18T21:02:13.866Z,6.60
2022-09-18T21:04:46.528Z,6.60
2022-09-18T21:07:13.943Z,6.50
2022-09-18T21:09:41.312Z,6.50
2022-09-18T21:12:09.124Z,6.60
2022-09-18T21:14:35.823Z,6.50
2022-09-18T21:17:03.175Z,6.50
2022-09-18T21:19:29.920Z,6.50
2022-09-18T21:21:58.251Z,6.50
2022-09-18T21:24:25.860Z,6.40
2022-09-18T21:26:52.630Z,6.40
2022-09-18T21:29:21.399Z,6.40
2022-09-18T21:31:50.284Z,6.50
2022-09-18T21:34:19.201Z,6.50
2022-09-18T21:36:45.933Z,6.40
2022-09-18T21:39:14.819Z,6.60
2022-09-18T21:41:42.326Z,6.70
2022-09-18T21:44:12.466Z,6.80
2022-09-18T21:46:39.822Z,6.80
2022-09-18T21:49:07.623Z,7.10
2022-09-18T21:51:35.144Z,7.20
2022-09-18T21:54:03.446Z,7.00
2022-09-18T21:56:32.171Z,7.10
2022-09-18T21:58:59.323Z,7.10
2022-09-18T22:01:28.347Z,7.10
2022-09-18T22:03:56.927Z,7.10
2022-09-18T22:06:25.619Z,7.00
2022-09-18T22:08:56.943Z,7.10
2022-09-18T22:11:26.190Z,7.10
2022-09-18T22:13:56.174Z,7.00
2022-09-18T22:16:23.077Z,7.30
2022-09-18T22:18:49.859Z,7.40
2022-09-18T22:21:23.082Z,7.50
2022-09-18T22:23:51.107Z,7.90
2022-09-18T22:26:23.991Z,7.50
2022-09-18T22:28:54.715Z,7.40
2022-09-18T22:31:23.833Z,7.70
2022-09-18T22:33:54.442Z,7.80
2022-09-18T22:36:21.303Z,7.80
2022-09-18T22:38:48.017Z,7.60
2022-09-18T22:41:15.436Z,7.80
2022-09-18T22:43:42.330Z,7.70
2022-09-18T22:46:12.388Z,7.70
2022-09-18T22:48:40.257Z,7.70
2022-09-18T22:51:08.943Z,7.60
2022-09-18T22:53:36.779Z,7.50
2022-09-18T22:56:05.888Z,7.60
2022-09-18T22:58:32.673Z,7.40
2022-09-18T23:01:06.274Z,7.70
2022-09-18T23:03:35.071Z,7.60
2022-09-18T23:06:02.193Z,7.50
2022-09-18T23:08:30.271Z,7.50
2022-09-18T23:11:01.387Z,7.60
2022-09-18T23:13:28.334Z,7.40
2022-09-18T23:15:55.300Z,7.30
2022-09-18T23:18:22.744Z,7.40
2022-09-18T23:20:50.803Z,7.50
2022-09-18T23:23:17.594Z,7.70
2022-09-18T23:25:44.939Z,7.70
2022-09-18T23:28:11.655Z,7.40
2022-09-18T23:30:38.427Z,7.40
2022-09-18T23:33:05.791Z,7.50
2022-09-18T23:35:32.514Z,7.50
2022-09-18T23:38:00.581Z,7.40
2022-09-18T23:40:27.938Z,7.40
2022-09-18T23:42:54.695Z,7.40
2022-09-18T23:45:21.424Z,7.40
2022-09-18T23:47:48.748Z,7.40
2022-09-18T23:50:15.669Z,7.40
2022-09-18T23:52:43.678Z,7.40
2022-09-18T23:55:12.368Z,7.40
2022-09-18T23:57:39.108Z,7.30
